createdAt,value
2022-12-22T00:01:17.199Z,6.00
2022-12-22T00:04:27.155Z,5.13
2022-12-22T00:10:19.175Z,5.43
2022-12-22T00:13:27.723Z,5.53
2022-12-22T00:19:15.954Z,7.23
2022-12-22T00:25:10.398Z,4.50
2022-12-22T00:31:05.382Z,3.67
2022-12-22T00:36:59.234Z,4.20
2022-12-22T00:40:06.197Z,5.57
2022-12-22T00:43:12.759Z,3.80
2022-12-22T00:49:08.560Z,4.87
2022-12-22T00:52:16.756Z,4.37
2022-12-22T00:58:10.281Z,3.83
2022-12-22T01:04:00.706Z,5.40
2022-12-22T01:07:09.338Z,3.83
2022-12-22T01:10:15.277Z,5.37
2022-12-22T01:16:02.906Z,5.93
2022-12-22T01:21:48.484Z,5.07
2022-12-22T01:24:56.440Z,4.17
2022-12-22T01:30:50.707Z,5.30
2022-12-22T01:33:56.826Z,4.73
2022-12-22T01:37:03.914Z,5.73
2022-12-22T01:40:10.101Z,5.33
2022-12-22T01:46:07.299Z,4.40
2022-12-22T01:52:01.145Z,5.07
2022-12-22T01:57:56.719Z,3.60
2022-12-22T02:03:44.611Z,3.70
2022-12-22T02:06:59.561Z,3.80
2022-12-22T02:12:58.381Z,4.93
2022-12-22T02:18:57.616Z,3.73
2022-12-22T02:22:06.861Z,3.93
2022-12-22T02:28:01.591Z,3.90
2022-12-22T02:31:09.546Z,2.63
2022-12-22T02:37:07.716Z,3.43
2022-12-22T02:43:02.857Z,3.00
2022-12-22T02:49:06.952Z,2.30
2022-12-22T02:54:59.080Z,4.20
2022-12-22T03:00:52.566Z,2.17
2022-12-22T03:06:49.638Z,3.23
2022-12-22T03:12:44.952Z,2.97
2022-12-22T03:15:51.385Z,1.97
2022-12-22T03:18:59.125Z,1.73
2022-12-22T03:24:52.537Z,2.17
2022-12-22T03:27:41.230Z,3.57
2022-12-22T03:33:16.986Z,2.20
2022-12-22T03:36:06.779Z,2.87
2022-12-22T03:42:00.075Z,2.73
2022-12-22T03:47:31.533Z,3.23
2022-12-22T03:53:07.547Z,2.23
2022-12-22T03:58:42.311Z,3.40
2022-12-22T04:01:30.717Z,2.43
2022-12-22T04:07:11.780Z,2.60
2022-12-22T04:10:19.878Z,2.47
2022-12-22T04:18:37.854Z,4.07
2022-12-22T04:24:11.089Z,4.80
2022-12-22T04:29:48.013Z,1.93
2022-12-22T04:38:23.582Z,3.17
2022-12-22T04:41:15.010Z,2.17
2022-12-22T04:46:51.231Z,4.97
2022-12-22T04:52:26.747Z,3.43
2022-12-22T04:58:04.322Z,3.53
2022-12-22T05:00:55.557Z,2.87
2022-12-22T05:03:44.679Z,2.87
2022-12-22T05:09:16.296Z,4.17
2022-12-22T05:14:48.978Z,5.03
2022-12-22T05:17:38.307Z,4.50
2022-12-22T05:20:27.652Z,3.23
2022-12-22T05:23:16.193Z,3.20
2022-12-22T05:26:05.613Z,3.00
2022-12-22T05:31:48.069Z,4.77
2022-12-22T05:37:18.882Z,3.50
2022-12-22T05:42:59.076Z,4.03
2022-12-22T05:45:48.520Z,5.10
2022-12-22T05:51:20.131Z,2.80
2022-12-22T05:56:57.683Z,2.83
2022-12-22T06:02:32.550Z,2.20
2022-12-22T06:05:22.070Z,2.73
2022-12-22T06:10:57.468Z,2.47
2022-12-22T06:16:41.111Z,2.73
2022-12-22T06:19:29.497Z,3.00
2022-12-22T06:22:19.423Z,1.37
2022-12-22T06:25:13.759Z,5.47
2022-12-22T06:27:59.363Z,3.33
2022-12-22T06:30:52.715Z,2.93
2022-12-22T06:33:40.960Z,2.37
2022-12-22T06:36:29.306Z,3.47
2022-12-22T06:39:19.592Z,3.97
2022-12-22T06:42:25.863Z,2.43
2022-12-22T06:45:14.169Z,2.27
2022-12-22T06:48:05.517Z,3.83
2022-12-22T06:50:55.591Z,4.30
2022-12-22T06:53:44.307Z,3.90
2022-12-22T06:59:32.171Z,6.03
2022-12-22T07:05:02.996Z,2.30
2022-12-22T07:11:00.706Z,3.17
2022-12-22T07:16:28.327Z,2.30
2022-12-22T07:19:17.307Z,5.20
2022-12-22T07:24:45.121Z,2.57
2022-12-22T07:30:20.586Z,2.87
2022-12-22T07:36:05.242Z,2.97
2022-12-22T07:38:53.933Z,3.50
2022-12-22T07:44:25.140Z,4.77
2022-12-22T07:47:14.403Z,4.13
2022-12-22T07:52:54.593Z,1.60
2022-12-22T07:55:43.245Z,3.37
2022-12-22T08:01:16.113Z,2.60
2022-12-22T08:04:04.670Z,2.60
2022-12-22T08:06:54.146Z,4.67
2022-12-22T08:12:32.504Z,10.47
2022-12-22T08:20:51.578Z,2.60
2022-12-22T08:29:11.316Z,4.23
2022-12-22T08:34:45.676Z,5.53
2022-12-22T08:37:41.331Z,2.10
2022-12-22T08:45:59.432Z,3.67
2022-12-22T08:51:43.054Z,6.37
2022-12-22T08:54:31.576Z,3.20
2022-12-22T09:00:13.040Z,5.10
2022-12-22T09:05:49.977Z,7.10
2022-12-22T09:11:19.684Z,5.70
2022-12-22T09:17:01.296Z,7.83
2022-12-22T09:22:44.296Z,5.40
2022-12-22T09:25:35.140Z,9.20
2022-12-22T09:31:04.382Z,8.57
2022-12-22T09:36:37.679Z,5.67
2022-12-22T09:42:06.606Z,4.53
2022-12-22T09:44:55.133Z,5.30
2022-12-22T09:50:35.423Z,5.07
2022-12-22T10:02:15.302Z,6.13
2022-12-22T10:05:10.238Z,5.97
2022-12-22T10:08:03.073Z,9.63
2022-12-22T10:13:43.476Z,10.63
2022-12-22T10:19:25.463Z,9.03
2022-12-22T10:22:28.866Z,5.53
2022-12-22T10:25:52.598Z,6.57
2022-12-22T10:31:18.384Z,5.67
2022-12-22T10:37:03.887Z,8.07
2022-12-22T10:42:40.952Z,6.03
2022-12-22T10:45:30.035Z,4.43
2022-12-22T10:51:14.985Z,7.27
2022-12-22T10:56:53.071Z,7.73
2022-12-22T10:59:50.464Z,6.37
2022-12-22T11:05:29.628Z,6.07
2022-12-22T11:08:22.757Z,6.50
2022-12-22T11:16:56.205Z,6.37
2022-12-22T11:22:39.398Z,9.90
2022-12-22T11:31:57.250Z,11.13
2022-12-22T11:37:39.591Z,12.30
2022-12-22T11:43:24.536Z,12.00
2022-12-22T11:52:35.209Z,7.97
2022-12-22T12:01:28.855Z,9.80
2022-12-22T12:07:38.231Z,5.87
2022-12-22T12:10:29.023Z,5.93
2022-12-22T12:16:12.762Z,5.37
2022-12-22T12:19:21.586Z,4.13
2022-12-22T12:22:20.594Z,6.27
2022-12-22T12:28:09.177Z,4.50
2022-12-22T12:30:59.808Z,4.70
2022-12-22T12:33:50.646Z,10.20
2022-12-22T12:39:29.742Z,4.53
2022-12-22T12:45:33.683Z,10.63
2022-12-22T12:54:43.376Z,7.57
2022-12-22T13:00:21.499Z,6.43
2022-12-22T13:06:02.423Z,4.33
2022-12-22T13:12:11.602Z,6.83
2022-12-22T13:14:58.610Z,3.33
2022-12-22T13:20:39.274Z,3.50
2022-12-22T13:26:19.729Z,4.57
2022-12-22T13:32:02.783Z,7.93
2022-12-22T13:37:44.990Z,6.47
2022-12-22T13:40:35.634Z,3.37
2022-12-22T13:43:23.821Z,6.33
2022-12-22T13:46:12.368Z,7.63
2022-12-22T13:51:48.703Z,3.97
2022-12-22T13:57:27.703Z,5.10
2022-12-22T14:00:26.263Z,4.90
2022-12-22T14:05:59.893Z,5.77
2022-12-22T14:08:48.400Z,3.73
2022-12-22T14:11:39.026Z,5.60
2022-12-22T14:14:33.716Z,6.70
2022-12-22T14:17:24.945Z,5.63
2022-12-22T14:23:13.798Z,3.30
2022-12-22T14:26:03.762Z,6.03
2022-12-22T14:28:54.764Z,6.80
2022-12-22T14:31:54.928Z,4.23
2022-12-22T14:37:32.559Z,8.07
2022-12-22T14:40:30.419Z,3.80
2022-12-22T14:46:20.702Z,6.57
2022-12-22T14:52:01.479Z,6.33
2022-12-22T14:54:51.433Z,8.27
2022-12-22T15:00:35.246Z,3.73
2022-12-22T15:06:40.246Z,4.97
2022-12-22T15:12:19.449Z,7.97
2022-12-22T15:18:05.022Z,4.23
2022-12-22T15:23:41.347Z,6.23
2022-12-22T15:26:34.390Z,3.27
2022-12-22T15:32:11.462Z,4.87
2022-12-22T15:35:03.164Z,4.17
2022-12-22T15:40:53.979Z,5.87
2022-12-22T15:43:59.203Z,6.37
2022-12-22T15:49:23.451Z,4.17
2022-12-22T15:52:14.869Z,5.03
2022-12-22T15:55:03.525Z,7.17
2022-12-22T16:00:40.662Z,6.27
2022-12-22T16:03:28.738Z,9.10
2022-12-22T16:09:07.695Z,4.57
2022-12-22T16:11:57.667Z,6.57
2022-12-22T16:17:28.717Z,6.83
2022-12-22T16:20:19.938Z,8.93
2022-12-22T16:26:01.741Z,10.37
2022-12-22T16:28:48.622Z,6.43
2022-12-22T16:34:28.362Z,8.50
2022-12-22T16:40:10.578Z,9.00
2022-12-22T16:46:20.280Z,10.13
2022-12-22T16:49:10.457Z,6.90
2022-12-22T16:54:52.582Z,9.37
2022-12-22T17:00:27.914Z,6.67
2022-12-22T17:03:18.121Z,7.90
2022-12-22T17:06:08.783Z,7.60
2022-12-22T17:11:46.447Z,4.30
2022-12-22T17:17:31.759Z,9.03
2022-12-22T17:23:04.256Z,6.50
2022-12-22T17:28:38.557Z,6.60
2022-12-22T17:34:19.582Z,5.20
2022-12-22T17:43:13.837Z,6.77
2022-12-22T17:46:02.007Z,5.90
2022-12-22T17:51:34.330Z,8.23
2022-12-22T17:54:24.818Z,4.30
2022-12-22T17:57:16.915Z,5.00
2022-12-22T18:02:55.116Z,5.43
2022-12-22T18:05:45.973Z,4.80
2022-12-22T18:11:23.849Z,5.30
2022-12-22T18:14:15.730Z,9.03
2022-12-22T18:19:46.627Z,7.23
2022-12-22T18:22:36.613Z,6.30
2022-12-22T18:28:20.827Z,5.20
2022-12-22T18:33:58.370Z,7.50
2022-12-22T18:36:47.849Z,7.47
2022-12-22T18:42:22.015Z,7.33
2022-12-22T18:45:17.004Z,4.83
2022-12-22T18:50:57.508Z,5.57
2022-12-22T18:56:33.960Z,6.67
2022-12-22T19:02:23.194Z,4.20
2022-12-22T19:08:00.169Z,8.80
2022-12-22T19:13:35.093Z,7.27
2022-12-22T19:19:06.078Z,10.87
2022-12-22T19:24:58.908Z,8.50
2022-12-22T19:30:35.717Z,9.33
2022-12-22T19:39:06.348Z,13.80
2022-12-22T19:41:56.867Z,9.47
2022-12-22T19:47:33.351Z,10.87
2022-12-22T19:53:10.749Z,6.97
2022-12-22T19:58:43.468Z,8.70
2022-12-22T20:04:15.889Z,8.53
2022-12-22T20:09:59.072Z,9.23
2022-12-22T20:12:49.532Z,7.40
2022-12-22T20:15:40.438Z,9.03
2022-12-22T20:18:30.764Z,11.07
2022-12-22T20:21:22.596Z,12.47
2022-12-22T20:24:15.269Z,12.00
2022-12-22T20:27:04.096Z,10.20
2022-12-22T20:32:34.997Z,6.93
2022-12-22T20:38:18.285Z,7.50
2022-12-22T20:41:10.220Z,8.30
2022-12-22T20:46:45.426Z,12.20
2022-12-22T20:52:22.923Z,6.43
2022-12-22T20:55:15.150Z,7.57
2022-12-22T21:00:51.374Z,6.53
2022-12-22T21:03:39.654Z,8.13
2022-12-22T21:09:16.320Z,5.10
2022-12-22T21:12:05.345Z,9.50
2022-12-22T21:17:58.727Z,5.40
2022-12-22T21:20:57.082Z,6.13
2022-12-22T21:26:32.953Z,8.13
2022-12-22T21:29:25.851Z,7.47
2022-12-22T21:35:10.299Z,5.43
2022-12-22T21:40:47.423Z,6.77
2022-12-22T21:43:37.760Z,6.83
2022-12-22T21:49:08.327Z,5.00
2022-12-22T21:51:57.496Z,7.57
2022-12-22T21:54:46.143Z,4.53
2022-12-22T22:00:18.842Z,4.90
2022-12-22T22:05:49.801Z,5.97
2022-12-22T22:11:38.204Z,5.87
2022-12-22T22:17:14.742Z,5.53
2022-12-22T22:22:52.770Z,7.40
2022-12-22T22:25:41.521Z,9.20
2022-12-22T22:28:30.124Z,4.97
2022-12-22T22:36:53.002Z,4.07
2022-12-22T22:42:22.938Z,4.63
2022-12-22T22:47:55.722Z,5.20
2022-12-22T22:53:25.616Z,3.83
2022-12-22T22:59:02.481Z,7.43
2022-12-22T23:04:32.477Z,4.00
2022-12-22T23:13:00.664Z,4.77
2022-12-22T23:18:42.549Z,3.87
2022-12-22T23:24:10.852Z,3.70
2022-12-22T23:32:26.525Z,4.63
2022-12-22T23:38:00.575Z,2.70
2022-12-22T23:43:36.220Z,4.27
2022-12-22T23:46:24.528Z,1.33
2022-12-22T23:49:13.953Z,2.73
2022-12-22T23:54:51.112Z,1.80
2022-12-22T23:57:40.131Z,3.73
